Time;durP1;ratioP1;P1;durP2;ratioP2;P2;SDS_P1;SDS_P2;PMS_P1;PMS_P2;Temp;Humidity;BMP_temperature;BMP_pressure;BME280_temperature;BME280_humidity;BME280_pressure;Samples;Min_cycle;Max_cycle;Signal;HPM_P1;HPM_P2
2022/06/16 00:01:01;;;;;;;9.38;5.85;;;;;;;14.74;75.25;93916.59;5113908;28;20019;-40
2022/06/16 00:03:27;;;;;;;7.03;5.93;;;;;;;14.69;75.61;93921.06;5113457;28;20111;-40
2022/06/16 00:05:53;;;;;;;9.18;5.45;;;;;;;14.81;75.19;93915.81;5113803;28;20067;-40
2022/06/16 00:08:19;;;;;;;10.77;6.30;;;;;;;14.81;74.69;93910.97;5113811;28;20054;-40
2022/06/16 00:13:35;;;;;;;10.43;5.38;;;;;;;14.66;74.99;93904.78;5113387;28;20027;-40
2022/06/16 00:16:01;;;;;;;7.15;5.00;;;;;;;14.62;75.05;93904.44;5112180;28;20040;-40
2022/06/16 00:18:27;;;;;;;9.10;6.43;;;;;;;14.56;75.39;93907.41;5113245;28;20117;-39
2022/06/16 00:20:53;;;;;;;7.05;5.55;;;;;;;14.50;75.15;93904.13;5113505;28;20028;-40
2022/06/16 00:23:19;;;;;;;8.40;6.28;;;;;;;14.48;75.40;93906.72;5113488;28;20063;-39
2022/06/16 00:25:44;;;;;;;5.55;5.03;;;;;;;14.28;76.31;93907.72;5113410;28;20064;-39
2022/06/16 00:28:10;;;;;;;6.18;5.57;;;;;;;14.31;75.90;93915.69;5113167;28;20032;-39
2022/06/16 00:30:36;;;;;;;5.35;4.85;;;;;;;14.43;75.28;93911.19;5113282;28;20024;-39
2022/06/16 00:33:01;;;;;;;6.25;5.50;;;;;;;14.52;74.90;93917.44;5113320;28;20522;-39
2022/06/16 00:35:27;;;;;;;8.35;6.50;;;;;;;14.57;74.80;93906.13;5113253;28;20028;-39
2022/06/16 00:37:52;;;;;;;8.95;5.72;;;;;;;14.56;75.18;93901.88;5112555;28;20480;-39
2022/06/16 00:40:18;;;;;;;7.30;5.95;;;;;;;14.57;76.01;93905.38;5113179;28;20059;-39
2022/06/16 00:42:44;;;;;;;7.10;6.25;;;;;;;14.41;76.86;93902.69;5112854;27;20024;-40
2022/06/16 00:45:45;;;;;;;6.75;6.15;;;;;;;14.49;76.27;93896.34;5112777;28;20116;-40
2022/06/16 00:48:35;;;;;;;8.98;6.65;;;;;;;14.39;76.31;93908.06;5113077;28;20031;-39
2022/06/16 00:51:17;;;;;;;5.90;5.30;;;;;;;14.32;76.70;93905.31;5102639;28;20038;-39
2022/06/16 00:53:44;;;;;;;6.60;6.00;;;;;;;14.26;76.78;93896.44;5091079;28;20048;-40
2022/06/16 00:56:13;;;;;;;9.30;5.90;;;;;;;14.38;76.12;93897.50;5092192;28;20032;-40
2022/06/16 00:58:40;;;;;;;6.53;5.78;;;;;;;14.39;75.99;93899.00;5091047;28;20031;-40
2022/06/16 01:01:08;;;;;;;8.07;6.13;;;;;;;14.43;76.27;93900.09;5091167;28;20136;-39
2022/06/16 01:06:29;;;;;;;7.72;6.93;;;;;;;14.37;76.84;93879.38;5092073;28;20039;-40
2022/06/16 01:08:59;;;;;;;19.02;7.20;;;;;;;14.32;77.00;93883.09;5092164;28;20024;-40
2022/06/16 01:14:46;;;;;;;11.68;6.70;;;;;;;14.35;76.55;93879.94;5098782;28;20058;-39
2022/06/16 01:17:43;;;;;;;8.50;6.80;;;;;;;14.10;77.18;93886.66;5092159;28;20064;-40
2022/06/16 01:20:09;;;;;;;8.10;5.78;;;;;;;14.19;76.97;93886.81;5091782;28;20035;-39
2022/06/16 01:22:56;;;;;;;6.50;5.85;;;;;;;14.25;76.52;93879.03;5091684;28;20028;-39
2022/06/16 01:25:34;;;;;;;9.07;6.10;;;;;;;14.22;76.37;93873.88;5090714;28;20020;-39
2022/06/16 01:28:05;;;;;;;10.40;5.57;;;;;;;14.21;76.53;93872.38;5091957;28;20055;-39
2022/06/16 01:30:54;;;;;;;8.13;6.88;;;;;;;14.12;77.58;93875.75;5091621;28;20066;-40
2022/06/16 01:33:24;;;;;;;8.10;7.30;;;;;;;14.07;77.25;93858.00;5090615;28;20032;-40
2022/06/16 01:35:55;;;;;;;9.57;7.03;;;;;;;14.17;77.42;93877.56;5091759;28;20028;-39
2022/06/16 01:38:32;;;;;;;9.55;5.97;;;;;;;14.27;76.95;93870.16;5090504;28;20099;-39
2022/06/16 01:41:19;;;;;;;18.83;7.28;;;;;;;14.26;77.20;93874.22;5091717;28;20032;-39
2022/06/16 01:43:49;;;;;;;7.78;7.07;;;;;;;14.27;77.80;93865.31;5091432;28;20043;-40
2022/06/16 01:46:21;;;;;;;7.05;6.35;;;;;;;14.32;78.06;93866.41;5091538;28;20028;-39
2022/06/16 01:48:52;;;;;;;7.80;6.45;;;;;;;14.36;77.75;93859.19;5090420;28;20512;-39
2022/06/16 01:51:43;;;;;;;6.97;6.28;;;;;;;14.32;78.07;93856.06;5093377;28;20023;-39
2022/06/16 01:54:31;;;;;;;8.13;6.60;;;;;;;14.32;77.91;93844.19;5110216;28;20079;-39
2022/06/16 01:57:10;;;;;;;7.65;6.50;;;;;;;14.34;78.78;93844.38;5110226;28;20035;-39
2022/06/16 02:00:06;;;;;;;9.65;6.63;;;;;;;14.41;78.49;93851.94;5111372;28;20038;-39
2022/06/16 02:02:34;;;;;;;8.45;6.00;;;;;;;14.44;77.72;93854.31;5088464;28;20064;-39
2022/06/16 02:05:06;;;;;;;7.88;6.00;;;;;;;14.34;76.64;93856.22;5110342;28;20034;-39
2022/06/16 02:07:53;;;;;;;6.28;5.65;;;;;;;14.42;76.59;93856.19;5110371;28;20683;-39
2022/06/16 02:10:23;;;;;;;9.98;5.72;;;;;;;14.45;75.81;93852.28;5110985;28;20034;-39
2022/06/16 02:12:56;;;;;;;8.57;5.53;;;;;;;14.36;75.48;93855.66;5109590;28;20027;-40
2022/06/16 02:15:38;;;;;;;7.65;6.00;;;;;;;14.32;75.48;93861.63;5111390;28;20027;-40
2022/06/16 02:18:11;;;;;;;6.72;6.03;;;;;;;14.04;75.80;93839.69;5111086;28;20023;-39
2022/06/16 02:20:52;;;;;;;8.32;6.45;;;;;;;14.25;75.73;93867.19;5110950;28;20489;-40
2022/06/16 02:23:18;;;;;;;7.43;6.32;;;;;;;14.14;76.03;93862.06;5111156;28;20408;-39
2022/06/16 02:25:45;;;;;;;7.25;6.03;;;;;;;14.04;76.10;93863.94;5110874;28;20031;-39
2022/06/16 02:28:12;;;;;;;10.80;6.60;;;;;;;13.98;76.25;93869.69;5109698;28;20485;-39
2022/06/16 02:30:50;;;;;;;7.25;6.55;;;;;;;13.93;76.81;93869.91;5110799;28;20031;-39
2022/06/16 02:33:25;;;;;;;9.63;6.80;;;;;;;13.84;78.25;93873.28;5111130;28;20028;-40
2022/06/16 02:36:02;;;;;;;7.80;6.55;;;;;;;13.92;78.16;93877.50;5110822;28;20031;-39
2022/06/16 02:38:51;;;;;;;6.50;5.90;;;;;;;14.01;77.67;93863.00;5109589;28;20110;-39
2022/06/16 02:42:03;;;;;;;7.85;6.55;;;;;;;14.02;78.26;93875.59;5110599;28;20085;-40
2022/06/16 02:44:33;;;;;;;10.43;6.25;;;;;;;14.02;78.42;93877.63;5109402;28;20039;-39
2022/06/16 02:47:03;;;;;;;13.05;6.45;;;;;;;14.09;77.57;93871.31;5110786;28;20110;-39
2022/06/16 02:49:44;;;;;;;7.30;6.28;;;;;;;13.95;77.23;93861.75;5110674;28;20061;-39
2022/06/16 02:52:20;;;;;;;7.90;6.70;;;;;;;14.10;77.27;93872.78;5100186;28;20028;-40
2022/06/16 02:55:04;;;;;;;10.50;7.13;;;;;;;14.06;77.74;93869.66;5090187;28;20127;-39
2022/06/16 02:57:48;;;;;;;10.73;7.78;;;;;;;14.07;78.01;93871.16;5090585;28;20096;-39
2022/06/16 03:00:17;;;;;;;7.93;7.13;;;;;;;14.11;78.01;93874.28;5092028;28;20024;-40
2022/06/16 03:02:43;;;;;;;9.05;6.45;;;;;;;14.19;77.50;93883.31;5093224;28;20028;-40
2022/06/16 03:05:11;;;;;;;9.25;6.70;;;;;;;14.22;77.30;93882.19;5094626;28;20089;-39
2022/06/16 03:07:37;;;;;;;6.55;5.95;;;;;;;14.27;76.86;93886.81;5109975;28;20500;-40
2022/06/16 03:10:05;;;;;;;8.35;7.07;;;;;;;14.24;77.04;93888.66;5113518;28;20042;-40
2022/06/16 03:12:30;;;;;;;7.50;6.32;;;;;;;14.19;77.31;93881.28;5114200;28;20032;-39
2022/06/16 03:14:56;;;;;;;7.38;6.60;;;;;;;14.29;77.30;93878.69;5114542;28;20034;-39
2022/06/16 03:17:21;;;;;;;7.82;7.03;;;;;;;14.29;77.91;93887.72;5114868;28;20027;-39
2022/06/16 03:19:47;;;;;;;7.97;6.53;;;;;;;14.38;77.32;93894.72;5114722;28;20031;-39
2022/06/16 03:22:12;;;;;;;8.48;6.63;;;;;;;14.37;77.00;93893.25;5114485;28;20023;-40
2022/06/16 03:24:38;;;;;;;13.90;6.63;;;;;;;14.44;76.61;93881.38;5114196;28;20489;-40
2022/06/16 03:27:05;;;;;;;9.27;6.25;;;;;;;14.51;76.01;93890.97;5113405;28;20036;-40
2022/06/16 03:29:30;;;;;;;8.98;6.10;;;;;;;14.48;76.39;93886.53;5114351;28;20488;-39
2022/06/16 03:31:56;;;;;;;11.02;6.97;;;;;;;14.49;77.17;93890.81;5114181;28;20100;-40
2022/06/16 03:34:23;;;;;;;9.27;7.53;;;;;;;14.40;77.14;93869.91;5114240;27;20024;-40
2022/06/16 03:36:49;;;;;;;8.90;7.13;;;;;;;14.51;77.31;93879.84;5114097;28;20454;-40
2022/06/16 03:39:14;;;;;;;9.00;7.38;;;;;;;14.43;78.03;93888.22;5113095;28;20035;-39
2022/06/16 03:41:40;;;;;;;9.25;8.00;;;;;;;14.43;78.22;93883.41;5114053;28;20023;-39
2022/06/16 03:44:05;;;;;;;8.38;7.57;;;;;;;14.55;78.01;93885.75;5114155;28;20024;-40
2022/06/16 03:46:32;;;;;;;14.98;8.00;;;;;;;14.41;78.68;93885.28;5113959;28;20035;-40
2022/06/16 03:48:58;;;;;;;14.20;7.50;;;;;;;14.41;78.68;93886.00;5113827;28;20023;-39
2022/06/16 03:51:23;;;;;;;7.75;6.95;;;;;;;14.51;77.71;93891.69;5109457;28;20039;-40
2022/06/16 03:53:49;;;;;;;11.18;7.65;;;;;;;14.36;78.28;93891.78;5093284;28;20093;-40
2022/06/16 03:56:15;;;;;;;8.15;6.95;;;;;;;14.39;78.35;93887.88;5093328;28;20020;-40
2022/06/16 03:58:41;;;;;;;9.02;6.63;;;;;;;14.35;78.87;93895.88;5093652;28;20104;-39
2022/06/16 04:01:06;;;;;;;9.30;7.28;;;;;;;14.49;78.81;93891.53;5093288;28;20493;-40
2022/06/16 04:06:17;;;;;;;8.15;7.13;;;;;;;14.54;78.65;93898.91;5113582;28;20035;-40
2022/06/16 04:08:42;;;;;;;9.75;7.28;;;;;;;14.46;78.53;93894.69;5113810;28;20027;-40
2022/06/16 04:13:53;;;;;;;14.27;8.70;;;;;;;14.39;79.13;93896.22;5113368;28;20042;-40
2022/06/16 04:16:19;;;;;;;9.90;7.75;;;;;;;14.55;79.60;93897.63;5113624;28;20092;-39
2022/06/16 04:18:44;;;;;;;9.13;7.68;;;;;;;14.52;79.68;93898.75;5113334;28;20031;-40
2022/06/16 04:21:10;;;;;;;10.40;7.60;;;;;;;14.54;80.04;93896.13;5113272;28;20023;-40
2022/06/16 04:23:36;;;;;;;8.77;7.93;;;;;;;14.64;79.66;93899.78;5113173;28;20546;-40
2022/06/16 04:26:02;;;;;;;17.38;11.68;;;;;;;14.75;79.56;93899.34;5113485;28;20023;-40
2022/06/16 04:28:27;;;;;;;16.35;12.10;;;;;;;14.93;78.89;93903.69;5113112;28;20420;-40
2022/06/16 04:30:53;;;;;;;12.43;11.00;;;;;;;15.11;78.82;93908.00;5113372;28;20035;-40
2022/06/16 04:33:19;;;;;;;19.63;11.50;;;;;;;15.22;78.65;93904.03;5113251;28;20117;-39
2022/06/16 04:35:44;;;;;;;16.35;12.65;;;;;;;15.33;78.27;93898.00;5113306;28;20035;-40
2022/06/16 04:38:09;;;;;;;13.60;12.20;;;;;;;15.48;77.81;93894.38;5113196;28;20091;-40
2022/06/16 04:40:35;;;;;;;17.23;11.88;;;;;;;15.46;76.76;93883.09;5112923;28;20587;-39
2022/06/16 04:43:01;;;;;;;12.85;11.55;;;;;;;15.69;76.26;93898.25;5112852;28;20034;-40
2022/06/16 04:45:26;;;;;;;14.30;11.80;;;;;;;15.79;76.46;93896.28;5112617;28;20035;-40
2022/06/16 04:47:51;;;;;;;14.68;12.57;;;;;;;15.83;76.54;93899.41;5112803;28;20039;-40
2022/06/16 04:50:18;;;;;;;14.27;12.57;;;;;;;15.98;75.60;93897.78;5112975;28;20028;-40
2022/06/16 04:52:47;;;;;;;21.02;15.10;;;;;;;16.03;75.33;93903.09;5096941;27;20031;-40
2022/06/16 04:55:14;;;;;;;14.82;13.23;;;;;;;16.08;75.27;93890.22;5092282;28;20024;-40
2022/06/16 04:57:40;;;;;;;16.23;14.00;;;;;;;15.99;75.62;93874.19;5092152;28;20089;-40
2022/06/16 05:00:10;;;;;;;15.15;12.80;;;;;;;16.18;76.03;93893.81;5092167;28;20023;-40
2022/06/16 05:02:35;;;;;;;16.30;12.88;;;;;;;16.19;75.87;93895.31;5090900;28;20031;-40
2022/06/16 05:05:01;;;;;;;14.55;12.77;;;;;;;16.19;76.37;93895.31;5092303;28;20021;-40
2022/06/16 05:07:26;;;;;;;15.52;12.70;;;;;;;16.26;76.61;93888.91;5092343;28;20572;-40
2022/06/16 05:09:52;;;;;;;14.60;12.95;;;;;;;16.28;76.48;93894.66;5091997;28;20054;-40
2022/06/16 05:12:17;;;;;;;14.43;12.90;;;;;;;16.39;76.62;93885.78;5091859;28;20055;-40
2022/06/16 05:14:43;;;;;;;16.73;14.95;;;;;;;16.58;75.37;93894.28;5111021;28;20027;-40
2022/06/16 05:17:08;;;;;;;25.23;15.50;;;;;;;16.71;75.18;93891.13;5112192;27;20027;-40
2022/06/16 05:19:34;;;;;;;16.85;15.05;;;;;;;16.75;75.10;93887.91;5112388;28;20030;-39
2022/06/16 05:22:01;;;;;;;18.90;15.52;;;;;;;16.86;74.62;93898.56;5112393;28;20031;-40
2022/06/16 05:24:27;;;;;;;24.63;17.02;;;;;;;16.87;75.08;93900.03;5111107;28;20557;-40
2022/06/16 05:26:53;;;;;;;16.58;14.52;;;;;;;16.88;75.36;93885.50;5112328;28;20080;-40
2022/06/16 05:29:21;;;;;;;17.10;15.23;;;;;;;17.09;74.74;93901.75;5111985;28;20028;-40
2022/06/16 05:31:47;;;;;;;20.77;15.77;;;;;;;17.23;75.16;93892.41;5112179;28;20031;-40
2022/06/16 05:34:13;;;;;;;20.70;16.73;;;;;;;17.35;74.60;93892.59;5111837;27;20027;-40
2022/06/16 05:36:38;;;;;;;24.65;15.07;;;;;;;17.51;74.17;93893.84;5111802;28;20099;-40
2022/06/16 05:39:04;;;;;;;15.48;13.88;;;;;;;17.66;74.18;93899.19;5112056;28;20024;-40
2022/06/16 05:41:30;;;;;;;18.85;14.38;;;;;;;17.77;73.63;93897.88;5111732;28;20030;-40
2022/06/16 05:43:55;;;;;;;15.85;13.30;;;;;;;17.83;72.87;93895.53;5111536;28;20023;-40
2022/06/16 05:46:22;;;;;;;14.68;13.15;;;;;;;17.67;73.72;93886.66;5111120;28;20066;-40
2022/06/16 05:48:48;;;;;;;23.25;13.70;;;;;;;17.74;74.40;93890.66;5111793;28;20031;-40
2022/06/16 05:51:15;;;;;;;13.82;12.27;;;;;;;17.74;74.48;93888.59;5108611;28;20046;-40
2022/06/16 05:53:40;;;;;;;18.02;13.45;;;;;;;17.77;75.08;93886.69;5090908;28;20543;-40
2022/06/16 05:56:06;;;;;;;17.33;13.55;;;;;;;17.96;74.93;93906.28;5091318;28;20048;-40
2022/06/16 05:58:31;;;;;;;14.25;12.73;;;;;;;18.01;74.92;93899.66;5093494;28;20413;-40
2022/06/16 06:00:58;;;;;;;13.18;11.77;;;;;;;18.14;74.77;93899.97;5111267;28;20569;-40
2022/06/16 06:03:24;;;;;;;12.93;11.52;;;;;;;18.27;74.65;93892.47;5111520;28;20030;-40
2022/06/16 06:05:49;;;;;;;11.98;9.90;;;;;;;18.42;73.43;93892.91;5111564;28;20031;-40
2022/06/16 06:16:35;;;;;;;16.33;11.50;;;;;;;18.36;73.39;93892.47;5110188;28;20433;-40
2022/06/16 06:21:58;;;;;;;15.90;12.68;;;;;;;18.64;71.99;93902.94;5111290;28;20031;-40
2022/06/16 06:24:25;;;;;;;11.15;9.63;;;;;;;18.76;70.54;93903.03;5110982;28;20106;-40
2022/06/16 06:26:51;;;;;;;14.18;10.77;;;;;;;18.95;69.34;93891.78;5111156;28;20032;-40
2022/06/16 06:29:16;;;;;;;17.60;11.45;;;;;;;19.07;69.61;93897.50;5111159;28;20035;-40
2022/06/16 06:31:42;;;;;;;17.48;12.45;;;;;;;19.18;69.61;93888.50;5111159;28;20099;-41
2022/06/16 06:34:07;;;;;;;20.63;12.10;;;;;;;19.31;68.96;93899.94;5110512;28;20039;-41
2022/06/16 06:36:33;;;;;;;19.67;13.40;;;;;;;19.49;68.34;93897.69;5110761;28;20030;-41
2022/06/16 06:38:58;;;;;;;23.02;13.55;;;;;;;19.61;68.11;93895.69;5111074;28;20024;-41
2022/06/16 06:41:24;;;;;;;12.98;11.60;;;;;;;19.67;68.22;93898.91;5110813;28;20493;-41
2022/06/16 06:43:49;;;;;;;13.52;11.23;;;;;;;19.78;67.67;93897.50;5110569;28;20050;-41
2022/06/16 06:46:14;;;;;;;12.80;11.35;;;;;;;19.92;67.33;93898.47;5110649;28;20032;-41
2022/06/16 06:48:40;;;;;;;19.33;13.32;;;;;;;20.14;69.16;93888.72;5109407;28;20031;-40
2022/06/16 06:51:05;;;;;;;14.63;12.35;;;;;;;20.29;64.78;93894.66;5109119;28;20023;-40
2022/06/16 06:53:31;;;;;;;15.32;13.82;;;;;;;20.24;64.78;93898.56;5090129;28;20609;-40
2022/06/16 06:55:58;;;;;;;17.88;14.27;;;;;;;20.15;66.37;93899.34;5102340;28;20535;-40
2022/06/16 06:58:24;;;;;;;15.25;13.65;;;;;;;20.18;66.11;93897.41;5110930;28;20032;-40
2022/06/16 07:00:51;;;;;;;16.13;14.48;;;;;;;20.17;66.56;93893.84;5109641;28;20027;-40
2022/06/16 07:03:17;;;;;;;15.80;13.73;;;;;;;19.98;64.91;93896.78;5110734;28;20027;-39
2022/06/16 07:05:43;;;;;;;13.90;12.50;;;;;;;19.96;65.49;93898.72;5109672;28;20407;-40
2022/06/16 07:08:08;;;;;;;16.13;14.27;;;;;;;20.11;65.96;93903.94;5110423;28;20030;-41
2022/06/16 07:10:34;;;;;;;18.95;13.13;;;;;;;20.35;64.33;93897.13;5109277;28;20024;-40
2022/06/16 07:12:59;;;;;;;14.45;12.90;;;;;;;20.43;62.12;93906.06;5109393;28;20034;-40
2022/06/16 07:15:25;;;;;;;17.52;14.85;;;;;;;20.33;64.72;93905.44;5110060;28;20503;-41
2022/06/16 07:17:50;;;;;;;17.02;15.05;;;;;;;20.60;65.71;93886.13;5110705;28;20028;-41
2022/06/16 07:20:16;;;;;;;13.35;11.95;;;;;;;21.23;59.34;93899.25;5110649;28;20032;-41
2022/06/16 07:22:43;;;;;;;20.23;14.52;;;;;;;21.88;58.95;93899.03;5110660;28;20027;-41
2022/06/16 07:25:09;;;;;;;17.67;13.35;;;;;;;22.74;56.23;93887.81;5110181;28;20027;-41
2022/06/16 07:27:35;;;;;;;12.23;10.98;;;;;;;23.55;51.02;93893.69;5110574;28;20031;-41
2022/06/16 07:30:01;;;;;;;11.43;10.32;;;;;;;23.77;50.45;93886.41;5110581;28;20023;-41
2022/06/16 07:32:27;;;;;;;12.75;11.35;;;;;;;24.13;49.51;93886.84;5110521;28;20023;-41
2022/06/16 07:34:52;;;;;;;12.65;10.90;;;;;;;24.29;49.87;93884.84;5110251;28;20020;-42
2022/06/16 07:37:18;;;;;;;12.70;11.50;;;;;;;24.99;49.37;93882.69;5110114;28;20063;-41
2022/06/16 07:39:44;;;;;;;11.43;10.35;;;;;;;25.38;48.17;93888.03;5110514;28;20106;-41
2022/06/16 07:42:10;;;;;;;12.30;11.00;;;;;;;25.48;46.57;93886.41;5110457;28;20046;-41
2022/06/16 07:44:36;;;;;;;14.27;12.82;;;;;;;25.68;47.20;93885.88;5110380;28;20506;-41
2022/06/16 07:47:03;;;;;;;12.60;11.30;;;;;;;26.34;44.08;93883.13;5111750;28;20019;-45
2022/06/16 07:49:29;;;;;;;11.43;10.38;;;;;;;26.23;43.45;93884.81;5114157;27;20110;-41
2022/06/16 07:51:57;;;;;;;11.93;10.82;;;;;;;26.50;43.37;93886.66;5112576;28;20043;-41
2022/06/16 07:54:23;;;;;;;10.97;9.97;;;;;;;26.10;44.16;93890.59;5113675;28;20075;-42
2022/06/16 07:56:49;;;;;;;11.35;10.30;;;;;;;25.78;44.53;93895.53;5113744;28;20512;-41
2022/06/16 07:59:15;;;;;;;11.55;10.48;;;;;;;26.62;43.35;93892.06;5113747;28;20030;-42
2022/06/16 08:01:40;;;;;;;10.35;9.30;;;;;;;27.03;40.52;93893.09;5113892;28;20028;-40
2022/06/16 08:04:06;;;;;;;10.23;9.23;;;;;;;27.47;38.94;93885.63;5113557;28;20614;-41
2022/06/16 08:06:34;;;;;;;10.45;9.40;;;;;;;27.47;39.49;93879.22;5113607;28;20023;-41
2022/06/16 08:08:59;;;;;;;12.23;8.93;;;;;;;27.69;37.98;93882.91;5113494;28;20023;-43
2022/06/16 08:14:09;;;;;;;12.45;10.82;;;;;;;27.56;40.56;93881.00;5113382;28;20515;-42
2022/06/16 08:16:35;;;;;;;10.45;9.40;;;;;;;28.36;37.81;93880.38;5113406;27;20023;-41
2022/06/16 08:19:02;;;;;;;10.40;9.50;;;;;;;27.79;40.10;93869.09;5113634;28;20522;-41
2022/06/16 08:21:28;;;;;;;11.57;10.35;;;;;;;27.13;40.18;93872.22;5113315;28;20034;-41
2022/06/16 08:23:54;;;;;;;11.25;10.10;;;;;;;26.67;40.42;93891.63;5113226;28;20019;-42
2022/06/16 08:26:20;;;;;;;10.95;10.05;;;;;;;27.50;41.13;93875.84;5113394;28;20080;-42
2022/06/16 08:28:46;;;;;;;10.27;9.38;;;;;;;28.35;39.39;93882.50;5112304;28;20027;-41
2022/06/16 08:31:12;;;;;;;10.13;8.90;;;;;;;28.82;36.83;93882.00;5113368;28;20507;-44
2022/06/16 08:33:38;;;;;;;10.45;9.55;;;;;;;29.65;36.27;93888.16;5113310;28;20023;-43
2022/06/16 08:36:03;;;;;;;11.48;10.15;;;;;;;30.62;34.93;93888.09;5111784;28;20058;-42
2022/06/16 08:38:29;;;;;;;8.73;7.88;;;;;;;29.77;34.16;93893.53;5112924;28;20024;-41
2022/06/16 08:41:12;;;;;;;7.93;7.32;;;;;;;29.49;33.96;93893.38;5112934;28;20023;-42
2022/06/16 08:43:53;;;;;;;8.25;7.55;;;;;;;29.89;33.77;93891.03;5112729;28;20549;-42
2022/06/16 08:46:20;;;;;;;9.60;8.80;;;;;;;30.73;33.31;93886.25;5113110;28;20031;-43
2022/06/16 08:49:01;;;;;;;8.55;7.85;;;;;;;31.26;32.47;93886.16;5096638;28;20118;-41
2022/06/16 08:51:50;;;;;;;8.52;7.72;;;;;;;32.11;31.63;93883.81;5096054;28;20028;-44
2022/06/16 08:54:35;;;;;;;8.80;8.00;;;;;;;32.83;29.93;93889.50;5112517;27;20054;-43
2022/06/16 08:57:35;;;;;;;7.80;7.07;;;;;;;32.16;28.95;93884.63;5112897;27;20035;-43
2022/06/16 09:00:07;;;;;;;24.85;10.02;;;;;;;31.97;31.50;93885.66;5112605;28;20024;-43
2022/06/16 09:02:50;;;;;;;8.98;8.18;;;;;;;32.73;31.00;93883.59;5112484;28;20023;-43
2022/06/16 09:05:41;;;;;;;10.68;7.20;;;;;;;32.01;30.16;93886.47;5112485;28;20050;-44
2022/06/16 09:08:21;;;;;;;8.48;7.78;;;;;;;30.70;32.53;93888.31;5112728;28;20030;-41
2022/06/16 09:11:18;;;;;;;9.02;8.23;;;;;;;28.67;34.16;93882.91;5112394;28;20504;-41
2022/06/16 09:14:19;;;;;;;10.00;8.75;;;;;;;29.33;35.76;93880.75;5111893;28;20409;-41
2022/06/16 09:17:10;;;;;;;7.93;7.32;;;;;;;29.30;33.78;93882.09;5095725;28;20036;-43
2022/06/16 09:20:05;;;;;;;7.65;7.00;;;;;;;29.98;33.29;93876.38;5112151;28;20041;-40
2022/06/16 09:22:42;;;;;;;8.65;7.95;;;;;;;31.30;32.65;93869.84;5106141;28;20031;-42
2022/06/16 09:25:07;;;;;;;6.82;6.22;;;;;;;32.55;29.40;93861.09;5112347;28;20076;-41
2022/06/16 09:27:41;;;;;;;8.23;7.25;;;;;;;33.75;28.67;93855.94;5111946;27;20027;-43
2022/06/16 09:30:18;;;;;;;8.38;7.63;;;;;;;33.63;27.88;93855.03;5110816;28;20031;-43
2022/06/16 09:32:54;;;;;;;6.68;6.18;;;;;;;33.28;26.96;93842.34;5110718;28;20024;-42
2022/06/16 09:35:27;;;;;;;6.90;6.30;;;;;;;34.14;27.14;93860.75;5110979;28;20055;-43
2022/06/16 09:37:58;;;;;;;6.13;5.63;;;;;;;34.70;24.56;93846.34;5111802;27;20046;-44
2022/06/16 09:40:52;;;;;;;6.95;6.25;;;;;;;34.09;24.73;93852.81;5111765;28;20106;-45
2022/06/16 09:43:46;;;;;;;7.70;7.00;;;;;;;32.90;28.89;93857.44;5103823;28;20105;-43
2022/06/16 09:46:13;;;;;;;10.70;6.53;;;;;;;31.89;28.05;93869.06;5090270;28;20052;-43
2022/06/16 09:48:49;;;;;;;8.40;7.60;;;;;;;31.01;31.11;93858.47;5090048;28;20032;-42
2022/06/16 09:51:27;;;;;;;8.20;7.40;;;;;;;31.73;29.63;93853.72;5094523;28;20055;-43
2022/06/16 09:54:14;;;;;;;6.47;5.88;;;;;;;32.58;28.27;93844.72;5111518;28;20051;-43
2022/06/16 09:56:40;;;;;;;6.38;5.88;;;;;;;31.90;28.82;93846.94;5111423;28;20412;-42
2022/06/16 09:59:10;;;;;;;9.13;7.25;;;;;;;31.16;29.37;93849.56;5110260;28;20588;-41
2022/06/16 10:01:51;;;;;;;8.32;7.25;;;;;;;31.27;30.61;93844.81;5111645;28;20103;-42
2022/06/16 10:04:17;;;;;;;7.13;6.53;;;;;;;31.72;29.13;93847.28;5109965;28;20059;-41
2022/06/16 10:06:57;;;;;;;7.38;6.22;;;;;;;32.23;28.35;93843.31;5111262;27;20095;-43
2022/06/16 10:09:26;;;;;;;11.85;7.60;;;;;;;33.02;29.58;93842.66;5110619;28;20083;-42
2022/06/16 10:12:21;;;;;;;10.32;8.70;;;;;;;33.54;27.61;93843.47;5111166;28;20036;-43
2022/06/16 10:14:49;;;;;;;8.25;7.45;;;;;;;34.23;27.89;93844.38;5089670;28;20032;-43
2022/06/16 10:17:16;;;;;;;6.40;5.80;;;;;;;33.40;25.85;93846.09;5091108;28;20516;-43
2022/06/16 10:19:44;;;;;;;6.43;5.72;;;;;;;32.05;27.58;93837.28;5089739;28;20032;-43
2022/06/16 10:22:16;;;;;;;11.55;10.05;;;;;;;31.04;29.89;93842.81;5090628;28;20028;-42
2022/06/16 10:24:55;;;;;;;9.68;8.02;;;;;;;30.05;32.86;93845.19;5089679;28;20052;-42
2022/06/16 10:27:22;;;;;;;9.32;8.35;;;;;;;29.25;32.93;93841.44;5090496;28;20066;-42
2022/06/16 10:29:56;;;;;;;10.45;7.80;;;;;;;28.65;34.98;93822.44;5089364;28;20028;-42
2022/06/16 10:32:35;;;;;;;8.68;7.75;;;;;;;28.02;36.95;93836.59;5090468;28;20104;-42
2022/06/16 10:35:01;;;;;;;8.55;7.85;;;;;;;27.58;35.95;93836.41;5090462;28;20501;-42
2022/06/16 10:37:29;;;;;;;8.88;8.10;;;;;;;27.10;38.47;93830.97;5090434;28;20053;-41
2022/06/16 10:40:00;;;;;;;8.65;7.68;;;;;;;26.94;38.82;93836.78;5093748;28;20119;-42
2022/06/16 10:42:31;;;;;;;8.63;7.82;;;;;;;27.03;38.63;93830.75;5109662;28;20066;-42
2022/06/16 10:45:06;;;;;;;8.43;7.63;;;;;;;27.72;40.76;93827.72;5110650;28;20500;-41
2022/06/16 10:47:53;;;;;;;9.88;8.98;;;;;;;27.97;40.29;93818.69;5109799;28;20106;-42
2022/06/16 10:50:30;;;;;;;9.38;7.50;;;;;;;28.42;35.69;93818.09;5102818;28;20069;-41
2022/06/16 10:53:30;;;;;;;6.28;5.78;;;;;;;29.02;33.10;93817.22;5093430;28;20024;-43
2022/06/16 10:56:03;;;;;;;8.55;7.70;;;;;;;29.46;36.05;93815.03;5069200;28;20039;-42
2022/06/16 10:58:33;;;;;;;8.35;7.55;;;;;;;30.42;36.03;93819.19;5090303;28;20552;-44
2022/06/16 11:01:18;;;;;;;7.47;6.82;;;;;;;31.45;33.85;93816.00;5089356;28;20034;-42
2022/06/16 11:03:51;;;;;;;5.60;5.10;;;;;;;31.16;30.96;93820.31;5090129;28;20047;-41
2022/06/16 11:06:19;;;;;;;6.07;5.57;;;;;;;31.49;30.28;93822.50;5090528;28;20062;-41
2022/06/16 11:08:51;;;;;;;7.07;6.25;;;;;;;32.15;29.21;93808.88;5090140;28;20489;-43
2022/06/16 11:11:20;;;;;;;6.40;5.80;;;;;;;32.62;31.24;93811.19;5090393;28;20075;-43
2022/06/16 11:13:56;;;;;;;8.10;6.45;;;;;;;33.02;29.30;93801.88;5088781;28;20031;-43
2022/06/16 11:16:28;;;;;;;5.57;5.13;;;;;;;32.98;27.57;93804.63;5090326;28;20039;-42
2022/06/16 11:18:56;;;;;;;5.93;5.40;;;;;;;33.12;29.27;93804.88;5088814;28;20499;-43
2022/06/16 11:21:25;;;;;;;5.70;5.20;;;;;;;32.45;27.85;93800.13;5090776;28;20035;-43
2022/06/16 11:23:54;;;;;;;16.05;6.72;;;;;;;31.69;29.67;93805.06;5094218;28;20107;-42
2022/06/16 11:26:28;;;;;;;7.60;6.80;;;;;;;30.76;30.45;93805.78;5094237;28;20466;-44
2022/06/16 11:29:01;;;;;;;7.75;6.93;;;;;;;30.31;31.00;93806.06;5094237;28;20035;-43
2022/06/16 11:31:48;;;;;;;7.80;6.50;;;;;;;29.54;32.38;93797.50;5092807;28;20683;-44
2022/06/16 11:34:20;;;;;;;6.82;6.22;;;;;;;28.95;32.44;93798.56;5094200;28;20468;-42
2022/06/16 11:36:51;;;;;;;8.07;7.28;;;;;;;28.47;34.96;93805.50;5094121;28;20085;-43
2022/06/16 11:39:22;;;;;;;6.38;5.68;;;;;;;27.94;32.88;93805.78;5093835;28;20028;-41
2022/06/16 11:41:50;;;;;;;7.35;6.28;;;;;;;27.63;34.52;93804.00;5094113;28;20127;-41
2022/06/16 11:44:16;;;;;;;7.57;6.78;;;;;;;27.40;36.30;93815.16;5092694;28;20028;-42
2022/06/16 11:46:49;;;;;;;9.93;6.15;;;;;;;27.46;34.01;93809.72;5093575;28;20043;-42
2022/06/16 11:49:22;;;;;;;7.68;6.93;;;;;;;27.25;36.31;93801.78;5092420;28;20085;-42
2022/06/16 11:51:56;;;;;;;8.77;7.50;;;;;;;27.02;35.11;93797.41;5099881;28;20028;-41
2022/06/16 11:54:24;;;;;;;7.63;7.03;;;;;;;26.87;37.20;93796.13;5113683;28;20051;-42
2022/06/16 11:57:03;;;;;;;9.53;8.37;;;;;;;26.69;37.64;93794.66;5113784;28;20031;-42
2022/06/16 12:00:05;;;;;;;7.82;7.03;;;;;;;26.59;37.47;93797.81;5114159;28;20029;-41
2022/06/16 12:02:55;;;;;;;25.05;8.05;;;;;;;26.43;38.45;93783.00;5113925;28;20080;-42
2022/06/16 12:05:35;;;;;;;8.90;7.75;;;;;;;26.35;40.14;93782.69;5113543;28;20489;-41
2022/06/16 12:08:20;;;;;;;7.65;6.95;;;;;;;26.33;40.95;93793.19;5113566;28;20028;-41
2022/06/16 12:10:51;;;;;;;7.85;7.10;;;;;;;26.38;39.12;93789.16;5113624;28;20111;-42
2022/06/16 12:13:35;;;;;;;8.20;7.38;;;;;;;26.41;37.99;93785.75;5105908;28;20039;-43